Time;durP1;ratioP1;P1;durP2;ratioP2;P2;SDS_P1;SDS_P2;PMS_P1;PMS_P2;Temp;Humidity;BMP_temperature;BMP_pressure;BME280_temperature;BME280_humidity;BME280_pressure;Samples;Min_cycle;Max_cycle;Signal;HPM_P1;HPM_P2
2023/07/16 00:04:15;;;;;;;6.00;4.32;;;29.30;78.40;;;;;;10937933;32;20011;-73
2023/07/16 00:10:17;;;;;;;6.78;3.55;;;29.30;78.60;;;;;;10927979;32;20448;-73
2023/07/16 00:16:19;;;;;;;6.97;4.43;;;29.20;78.70;;;;;;10927918;32;20026;-73
2023/07/16 00:22:21;;;;;;;8.43;3.62;;;29.10;78.80;;;;;;10941761;32;20020;-73
2023/07/16 00:28:23;;;;;;;5.62;4.32;;;29.00;78.80;;;;;;10941519;32;20105;-73
2023/07/16 00:34:25;;;;;;;4.22;2.90;;;29.10;78.70;;;;;;10941534;32;20015;-73
2023/07/16 00:40:28;;;;;;;7.25;4.65;;;29.20;78.50;;;;;;10940995;32;20361;-73
2023/07/16 00:46:30;;;;;;;8.80;4.40;;;29.20;78.60;;;;;;10941132;32;20389;-73
2023/07/16 00:52:32;;;;;;;5.97;3.75;;;29.10;78.60;;;;;;10927688;32;20023;-73
2023/07/16 00:58:34;;;;;;;9.38;4.72;;;29.00;78.80;;;;;;10930440;32;20027;-73
2023/07/16 01:04:36;;;;;;;8.35;4.57;;;28.90;78.90;;;;;;10948148;32;20015;-73
2023/07/16 01:10:40;;;;;;;7.28;4.70;;;28.80;79.00;;;;;;10947893;32;20053;-73
2023/07/16 01:16:43;;;;;;;9.85;4.55;;;28.90;79.20;;;;;;10933662;32;20326;-73
2023/07/16 01:22:45;;;;;;;5.95;4.35;;;28.90;79.30;;;;;;10947507;32;20022;-73
2023/07/16 01:28:55;;;;;;;8.15;3.85;;;28.80;79.30;;;;;;10933693;32;20022;-73
2023/07/16 01:34:58;;;;;;;6.87;4.47;;;28.80;79.40;;;;;;10933320;32;20440;-73
2023/07/16 01:41:00;;;;;;;10.07;5.03;;;28.70;79.50;;;;;;10946953;32;20361;-73
2023/07/16 01:47:13;;;;;;;8.68;3.97;;;28.60;79.50;;;;;;10946651;32;20046;-73
2023/07/16 01:53:15;;;;;;;4.80;3.62;;;28.60;79.40;;;;;;10933031;32;20019;-73
2023/07/16 01:59:17;;;;;;;6.72;5.20;;;28.40;79.50;;;;;;10946334;32;20018;-73
2023/07/16 02:05:19;;;;;;;6.18;4.43;;;28.40;79.70;;;;;;10942050;32;20046;-73
2023/07/16 02:11:22;;;;;;;6.35;4.22;;;28.40;79.40;;;;;;10929023;32;20045;-73
2023/07/16 02:17:43;;;;;;;5.97;4.45;;;28.50;79.30;;;;;;10945597;32;20011;-73
2023/07/16 02:23:46;;;;;;;6.30;4.47;;;28.50;79.20;;;;;;10945418;32;20325;-73
2023/07/16 02:29:48;;;;;;;6.62;4.60;;;28.30;79.50;;;;;;10945046;32;20062;-73
2023/07/16 02:35:51;;;;;;;13.25;5.10;;;28.20;79.70;;;;;;10931186;32;20305;-73
2023/07/16 02:41:55;;;;;;;8.73;5.25;;;28.20;79.80;;;;;;10944791;32;20357;-73
2023/07/16 02:48:04;;;;;;;8.82;4.55;;;28.10;79.90;;;;;;10918519;32;20039;-73
2023/07/16 02:54:06;;;;;;;8.93;5.20;;;28.20;79.80;;;;;;10930880;32;20019;-73
2023/07/16 03:00:09;;;;;;;7.28;4.25;;;28.30;79.70;;;;;;10944064;32;20051;-73
2023/07/16 03:06:11;;;;;;;8.27;4.95;;;28.30;79.60;;;;;;10943845;32;20035;-73
2023/07/16 03:12:13;;;;;;;10.45;5.40;;;28.30;79.80;;;;;;10929259;32;20057;-73
2023/07/16 03:18:18;;;;;;;6.47;4.55;;;28.20;80.00;;;;;;10942751;32;20018;-73
2023/07/16 03:24:20;;;;;;;6.57;4.18;;;28.20;80.10;;;;;;10943027;32;20018;-73
2023/07/16 03:30:22;;;;;;;6.35;3.92;;;28.10;80.70;;;;;;10942946;32;20026;-73
2023/07/16 03:36:24;;;;;;;6.70;4.30;;;28.10;80.70;;;;;;10938979;32;20027;-73
2023/07/16 03:42:26;;;;;;;9.15;4.97;;;28.10;80.70;;;;;;10942618;32;20041;-73
2023/07/16 03:48:28;;;;;;;6.50;4.18;;;28.00;80.90;;;;;;10942334;32;20054;-73
2023/07/16 03:54:30;;;;;;;6.45;4.80;;;28.00;81.10;;;;;;10942321;32;20444;-73
2023/07/16 04:00:32;;;;;;;5.82;4.18;;;28.00;81.30;;;;;;10928829;32;20019;-73
2023/07/16 04:06:34;;;;;;;7.47;3.95;;;28.00;81.20;;;;;;10941906;32;20466;-73
2023/07/16 04:12:36;;;;;;;7.78;3.78;;;27.90;81.20;;;;;;10929174;32;20015;-73
2023/07/16 04:18:38;;;;;;;14.05;5.03;;;27.90;81.30;;;;;;10941835;32;20075;-73
2023/07/16 04:24:40;;;;;;;7.43;4.05;;;28.00;81.40;;;;;;10941608;32;20015;-73
2023/07/16 04:30:42;;;;;;;6.03;4.37;;;27.90;81.20;;;;;;10941460;32;20049;-73
2023/07/16 04:36:44;;;;;;;7.32;5.35;;;28.00;81.30;;;;;;10948474;32;20041;-73
2023/07/16 04:42:46;;;;;;;6.25;4.03;;;28.00;81.40;;;;;;10949005;32;20042;-73
2023/07/16 04:48:48;;;;;;;7.62;4.93;;;28.00;81.50;;;;;;10948672;32;20054;-73
2023/07/16 04:54:50;;;;;;;7.57;4.47;;;28.00;81.90;;;;;;10948490;32;20023;-73
2023/07/16 05:00:52;;;;;;;6.53;4.53;;;28.10;82.10;;;;;;10946585;32;20416;-73
2023/07/16 05:06:53;;;;;;;5.45;3.85;;;28.10;82.30;;;;;;10948069;32;20045;-73
2023/07/16 05:12:55;;;;;;;8.32;4.35;;;28.00;82.60;;;;;;10947951;32;20041;-73
2023/07/16 05:18:57;;;;;;;6.95;3.20;;;28.00;82.70;;;;;;10947625;32;20053;-73
2023/07/16 05:24:59;;;;;;;8.93;4.72;;;28.20;82.40;;;;;;10934106;32;20404;-73
2023/07/16 05:31:02;;;;;;;6.68;3.97;;;28.30;82.20;;;;;;10947240;32;20333;-73
2023/07/16 05:37:04;;;;;;;10.73;4.80;;;28.30;82.20;;;;;;10947140;32;20451;-73
2023/07/16 05:43:06;;;;;;;7.43;3.45;;;28.40;82.20;;;;;;10945171;32;20357;-73
2023/07/16 05:49:08;;;;;;;6.43;3.83;;;28.50;82.40;;;;;;10946651;32;20143;-73
2023/07/16 05:55:10;;;;;;;9.90;5.03;;;28.60;82.40;;;;;;10933011;32;20342;-73
2023/07/16 06:01:12;;;;;;;7.82;4.60;;;28.70;82.50;;;;;;10932829;32;20341;-73
2023/07/16 06:07:14;;;;;;;5.68;4.37;;;28.80;82.20;;;;;;10932173;32;20376;-70
2023/07/16 06:13:16;;;;;;;15.98;7.22;;;28.90;81.80;;;;;;10931761;32;20030;-74
2023/07/16 06:19:18;;;;;;;9.77;6.80;;;29.00;81.60;;;;;;10945426;32;20015;-74
2023/07/16 06:25:20;;;;;;;7.43;5.22;;;29.10;81.00;;;;;;10945210;32;20019;-72
2023/07/16 06:31:22;;;;;;;10.35;5.93;;;29.20;81.20;;;;;;10943622;32;20046;-73
2023/07/16 06:37:25;;;;;;;5.03;3.95;;;29.30;81.10;;;;;;10926322;32;20400;-73
2023/07/16 06:43:27;;;;;;;6.60;4.15;;;29.40;80.90;;;;;;10944421;32;20485;-72
2023/07/16 06:49:31;;;;;;;9.77;5.25;;;29.50;81.00;;;;;;10943835;32;20053;-72
2023/07/16 06:55:33;;;;;;;5.28;3.87;;;29.60;81.20;;;;;;10943199;32;20049;-73
2023/07/16 07:01:35;;;;;;;23.02;17.55;;;29.60;80.90;;;;;;10943724;32;20057;-73
2023/07/16 07:07:37;;;;;;;13.27;8.85;;;29.80;80.50;;;;;;10938515;32;20039;-73
2023/07/16 07:13:39;;;;;;;12.73;7.25;;;29.80;80.50;;;;;;10943241;32;20046;-74
2023/07/16 07:19:43;;;;;;;8.40;5.55;;;29.80;80.10;;;;;;10939118;32;20019;-73
2023/07/16 07:25:54;;;;;;;10.00;5.72;;;29.90;79.70;;;;;;10935574;32;20084;-74
2023/07/16 07:31:56;;;;;;;8.07;4.87;;;30.00;79.70;;;;;;10942618;27;20365;-74
2023/07/16 07:37:58;;;;;;;10.02;4.70;;;30.10;79.60;;;;;;10938667;32;20302;-74
2023/07/16 07:44:00;;;;;;;6.20;4.18;;;30.20;79.40;;;;;;10915654;32;20404;-74
2023/07/16 07:50:02;;;;;;;6.47;4.62;;;30.30;79.00;;;;;;10942110;32;20357;-74
2023/07/16 07:56:04;;;;;;;8.80;4.82;;;30.30;78.80;;;;;;10942020;32;20019;-72
2023/07/16 08:02:06;;;;;;;8.75;4.03;;;30.40;78.00;;;;;;10928480;32;20421;-74
2023/07/16 08:08:09;;;;;;;31.37;7.20;;;30.50;77.90;;;;;;10941900;32;20054;-74
2023/07/16 08:14:11;;;;;;;16.98;4.75;;;30.60;77.40;;;;;;10941514;32;20023;-73
2023/07/16 08:20:13;;;;;;;8.93;4.60;;;30.70;77.10;;;;;;10937896;32;20034;-74
2023/07/16 08:26:16;;;;;;;8.02;4.18;;;30.80;76.80;;;;;;10941352;32;20041;-73
2023/07/16 08:32:19;;;;;;;7.43;3.15;;;30.90;76.40;;;;;;10941086;32;20019;-75
2023/07/16 08:38:21;;;;;;;24.52;4.72;;;31.00;76.20;;;;;;10940302;32;20042;-74
2023/07/16 08:44:24;;;;;;;13.02;6.93;;;31.10;75.30;;;;;;10935463;32;20341;-73
2023/07/16 08:50:27;;;;;;;13.75;5.28;;;31.20;75.10;;;;;;10937114;32;20053;-73
2023/07/16 08:56:29;;;;;;;11.12;4.78;;;31.30;73.70;;;;;;10923941;32;20085;-73
2023/07/16 09:02:31;;;;;;;10.68;3.83;;;31.30;73.30;;;;;;10924845;32;20027;-74
2023/07/16 09:08:33;;;;;;;7.45;3.37;;;31.40;73.30;;;;;;10923767;32;20053;-74
2023/07/16 09:14:36;;;;;;;12.70;4.43;;;31.60;72.70;;;;;;10940610;32;20015;-73
2023/07/16 09:20:40;;;;;;;9.45;3.95;;;31.70;72.50;;;;;;10943418;32;20031;-74
2023/07/16 09:26:50;;;;;;;11.88;4.53;;;31.80;71.80;;;;;;10945447;32;20401;-72
2023/07/16 09:32:52;;;;;;;11.85;5.50;;;31.90;71.00;;;;;;10947231;32;20315;-73
2023/07/16 09:38:54;;;;;;;20.25;5.72;;;32.00;70.40;;;;;;10944190;32;20031;-73
2023/07/16 09:44:59;;;;;;;8.25;4.78;;;32.10;69.80;;;;;;10946504;32;20037;-72
2023/07/16 09:51:02;;;;;;;5.55;3.95;;;32.20;69.20;;;;;;10945210;32;20049;-73
2023/07/16 09:57:06;;;;;;;11.70;5.32;;;32.30;69.60;;;;;;10941285;32;20042;-72
2023/07/16 10:03:08;;;;;;;9.65;5.40;;;32.40;69.40;;;;;;10908414;32;20054;-73
2023/07/16 10:09:10;;;;;;;9.10;4.65;;;32.60;70.60;;;;;;10904748;32;20024;-72
2023/07/16 10:15:13;;;;;;;11.23;5.30;;;32.70;70.00;;;;;;10904559;32;20350;-73
2023/07/16 10:21:23;;;;;;;8.43;4.22;;;32.80;70.20;;;;;;10903954;32;20042;-72
2023/07/16 10:27:30;;;;;;;10.70;5.53;;;32.90;69.80;;;;;;10894136;32;20394;-72
2023/07/16 10:33:32;;;;;;;12.43;5.12;;;32.90;68.40;;;;;;10941433;32;20397;-72
2023/07/16 10:39:34;;;;;;;9.70;4.53;;;33.00;69.00;;;;;;10931550;32;20045;-73
2023/07/16 10:45:37;;;;;;;8.55;5.37;;;33.30;69.50;;;;;;10931939;32;20317;-72
2023/07/16 10:51:39;;;;;;;8.00;5.05;;;33.50;69.90;;;;;;10930841;32;20066;-72
2023/07/16 10:57:41;;;;;;;11.23;6.18;;;33.50;70.00;;;;;;10930232;32;20023;-72
2023/07/16 11:03:43;;;;;;;6.20;4.35;;;33.20;70.60;;;;;;10944060;32;20019;-72
2023/07/16 11:09:48;;;;;;;6.35;4.78;;;33.30;70.50;;;;;;10943850;32;20019;-72
2023/07/16 11:15:50;;;;;;;6.10;4.30;;;33.60;69.00;;;;;;10943671;32;20418;-72
2023/07/16 11:21:52;;;;;;;18.08;5.97;;;34.00;68.70;;;;;;10943496;32;20093;-72
2023/07/16 11:27:56;;;;;;;9.32;5.20;;;34.30;68.30;;;;;;10940182;32;20031;-73
2023/07/16 11:34:01;;;;;;;12.85;6.22;;;34.30;68.10;;;;;;10943069;32;20405;-72
2023/07/16 11:40:08;;;;;;;8.45;4.90;;;34.60;67.30;;;;;;10941040;32;20310;-72
2023/07/16 11:46:19;;;;;;;6.75;4.10;;;34.70;66.80;;;;;;10942587;32;20016;-73
2023/07/16 11:52:27;;;;;;;19.45;5.68;;;35.00;65.60;;;;;;10928652;32;20049;-72
2023/07/16 11:58:29;;;;;;;8.15;4.30;;;35.40;64.20;;;;;;10942226;32;20065;-72
2023/07/16 12:04:31;;;;;;;9.63;5.07;;;35.30;66.30;;;;;;10942126;32;20015;-72
2023/07/16 12:10:33;;;;;;;10.82;4.85;;;35.40;64.70;;;;;;10942003;32;20038;-72
2023/07/16 12:16:36;;;;;;;9.98;3.97;;;35.50;65.00;;;;;;10942516;32;20037;-72
2023/07/16 12:22:38;;;;;;;10.75;5.85;;;35.40;65.20;;;;;;10941816;32;20011;-72
2023/07/16 12:28:40;;;;;;;6.72;4.50;;;35.40;63.60;;;;;;10941540;32;20027;-73
2023/07/16 12:34:42;;;;;;;8.23;5.03;;;35.50;63.40;;;;;;10941463;32;20019;-72
2023/07/16 12:40:45;;;;;;;6.47;4.15;;;35.60;62.80;;;;;;10940053;32;20038;-73
2023/07/16 12:46:47;;;;;;;10.05;4.07;;;35.60;63.40;;;;;;10941305;32;20045;-73
2023/07/16 12:52:49;;;;;;;6.85;4.25;;;35.80;63.10;;;;;;10942022;32;20043;-73
2023/07/16 12:58:51;;;;;;;7.32;4.20;;;35.70;63.20;;;;;;10947008;32;20042;-73
2023/07/16 13:04:53;;;;;;;10.52;5.18;;;35.50;64.20;;;;;;10946373;32;20038;-73
2023/07/16 13:10:55;;;;;;;10.45;5.32;;;35.60;62.60;;;;;;10947803;32;20023;-72
2023/07/16 13:16:58;;;;;;;11.70;5.97;;;35.60;63.50;;;;;;10947798;32;20191;-73
2023/07/16 13:23:00;;;;;;;9.65;4.97;;;35.50;62.50;;;;;;10947638;32;20011;-73
2023/07/16 13:29:02;;;;;;;10.15;4.62;;;35.60;61.30;;;;;;10945365;32;20023;-73
2023/07/16 13:35:05;;;;;;;7.57;4.78;;;35.40;63.00;;;;;;10947169;32;20321;-73
2023/07/16 13:41:07;;;;;;;7.72;4.75;;;35.40;62.20;;;;;;10947023;32;20015;-73
2023/07/16 13:47:09;;;;;;;9.13;4.43;;;35.40;62.80;;;;;;10946826;32;20047;-72
2023/07/16 13:53:11;;;;;;;12.65;5.95;;;35.30;62.10;;;;;;10943780;32;20027;-73
2023/07/16 13:59:14;;;;;;;9.52;4.55;;;35.40;61.30;;;;;;10946355;32;20016;-73
2023/07/16 14:05:16;;;;;;;7.30;4.50;;;35.40;62.60;;;;;;10926518;32;20341;-72
2023/07/16 14:11:18;;;;;;;6.35;4.45;;;35.20;62.80;;;;;;10945351;32;20057;-73
2023/07/16 14:17:20;;;;;;;7.43;3.65;;;35.20;63.60;;;;;;10924055;32;20057;-73
2023/07/16 14:23:22;;;;;;;6.15;3.80;;;35.30;61.80;;;;;;10939240;32;20390;-72
2023/07/16 14:29:27;;;;;;;8.07;4.47;;;35.30;60.30;;;;;;10945250;32;20023;-73
2023/07/16 14:35:29;;;;;;;10.07;4.72;;;35.40;59.00;;;;;;10944999;32;20046;-73
2023/07/16 14:41:31;;;;;;;8.00;3.87;;;35.40;58.70;;;;;;10927273;32;20053;-73
2023/07/16 14:47:34;;;;;;;6.03;3.03;;;35.40;59.70;;;;;;10944662;32;20019;-73
2023/07/16 14:53:43;;;;;;;8.52;4.15;;;35.40;59.80;;;;;;10940538;32;20019;-73
2023/07/16 14:59:46;;;;;;;11.07;3.78;;;35.40;59.10;;;;;;10930253;32;20024;-73
2023/07/16 15:05:48;;;;;;;5.90;3.55;;;35.50;58.60;;;;;;10943841;32;20042;-73
2023/07/16 15:11:50;;;;;;;7.70;4.53;;;35.50;58.50;;;;;;10943844;32;20318;-73
2023/07/16 15:17:52;;;;;;;5.00;3.10;;;35.50;57.90;;;;;;10943263;32;20030;-73
2023/07/16 15:23:54;;;;;;;4.78;3.08;;;35.50;56.90;;;;;;10943321;32;20015;-73
2023/07/16 15:29:56;;;;;;;6.55;2.83;;;35.50;57.00;;;;;;10932845;27;20034;-73
2023/07/16 15:36:19;;;;;;;8.13;4.20;;;35.70;56.80;;;;;;10940861;32;20031;-72
2023/07/16 15:42:44;;;;;;;8.93;3.78;;;35.80;57.00;;;;;;10937224;32;20049;-72
2023/07/16 15:48:46;;;;;;;6.15;3.80;;;35.60;56.90;;;;;;10943144;32;20023;-73
2023/07/16 15:54:49;;;;;;;4.62;2.58;;;35.60;57.60;;;;;;10942291;32;20007;-72
2023/07/16 16:01:08;;;;;;;18.20;3.97;;;35.60;57.60;;;;;;10942194;32;20018;-72
2023/07/16 16:07:10;;;;;;;4.00;2.87;;;35.60;57.40;;;;;;10938699;32;20062;-72
2023/07/16 16:13:12;;;;;;;8.65;4.78;;;35.60;57.60;;;;;;10927731;32;20043;-72
2023/07/16 16:19:19;;;;;;;15.07;5.18;;;35.50;57.40;;;;;;10941791;32;20259;-72
2023/07/16 16:25:20;;;;;;;;;;;35.40;57.90;;;;;;10936334;32;20065;-72
2023/07/16 16:31:22;;;;;;;6.45;3.65;;;35.40;58.30;;;;;;10946957;32;19941;-72
2023/07/16 16:37:24;;;;;;;8.30;3.95;;;35.30;58.20;;;;;;10930462;32;20031;-72
2023/07/16 16:43:26;;;;;;;5.55;3.53;;;35.30;59.70;;;;;;10935691;32;20020;-72
2023/07/16 16:49:28;;;;;;;7.70;3.42;;;35.20;59.70;;;;;;10931479;32;20037;-73
2023/07/16 16:55:30;;;;;;;8.60;4.10;;;35.30;59.70;;;;;;10947787;32;20046;-73
2023/07/16 17:01:32;;;;;;;8.95;3.90;;;35.20;59.70;;;;;;10948609;32;20394;-72
2023/07/16 17:07:34;;;;;;;10.88;5.00;;;35.20;60.00;;;;;;10948387;32;20023;-72
2023/07/16 17:13:36;;;;;;;6.80;3.87;;;35.10;61.70;;;;;;10931186;32;20019;-71
2023/07/16 17:19:41;;;;;;;4.85;2.95;;;35.00;62.00;;;;;;10948140;32;20038;-73
2023/07/16 17:25:43;;;;;;;5.78;3.17;;;35.00;61.80;;;;;;10919886;32;20031;-72
2023/07/16 17:31:45;;;;;;;5.87;3.87;;;34.90;61.10;;;;;;10909568;32;20054;-72
2023/07/16 17:37:47;;;;;;;8.52;4.65;;;34.90;60.20;;;;;;10895825;32;20026;-73
2023/07/16 17:44:05;;;;;;;6.12;3.92;;;35.00;59.70;;;;;;10907692;32;20020;-73
2023/07/16 17:50:07;;;;;;;6.60;3.30;;;35.00;60.40;;;;;;10904861;32;20346;-72
2023/07/16 17:56:09;;;;;;;6.70;3.42;;;35.00;60.70;;;;;;10904673;32;20019;-73
2023/07/16 18:02:11;;;;;;;5.70;3.33;;;35.10;61.30;;;;;;10904272;32;20050;-72
2023/07/16 18:08:13;;;;;;;6.85;4.28;;;35.10;60.90;;;;;;10905890;32;20024;-72
2023/07/16 18:14:15;;;;;;;6.85;3.97;;;35.00;61.50;;;;;;10922519;32;20108;-72
2023/07/16 18:20:42;;;;;;;5.50;3.30;;;34.60;63.10;;;;;;10961356;32;20328;-73
2023/07/16 18:26:44;;;;;;;;;;;34.40;64.10;;;;;;10983098;32;20040;-73
2023/07/16 18:32:46;;;;;;;5.65;3.37;;;34.20;64.90;;;;;;10980651;32;19926;-72
2023/07/16 18:38:48;;;;;;;5.22;2.75;;;34.00;66.00;;;;;;10969311;32;20104;-72
2023/07/16 18:44:56;;;;;;;3.78;2.45;;;33.80;67.50;;;;;;10978354;32;20073;-72
2023/07/16 18:51:00;;;;;;;4.80;2.85;;;33.60;68.50;;;;;;10977266;32;20026;-72
2023/07/16 18:57:02;;;;;;;5.32;3.45;;;33.60;68.50;;;;;;10958455;32;20030;-72
2023/07/16 19:03:04;;;;;;;4.40;2.83;;;33.40;69.10;;;;;;10903805;32;20043;-72
2023/07/16 19:09:07;;;;;;;5.90;3.08;;;33.40;69.40;;;;;;10924018;32;20491;-72
2023/07/16 19:15:09;;;;;;;5.50;3.08;;;33.30;69.80;;;;;;10925964;32;20054;-73
2023/07/16 19:21:11;;;;;;;7.35;3.53;;;33.20;69.90;;;;;;10921247;32;20030;-72
2023/07/16 19:27:13;;;;;;;9.30;2.90;;;33.10;70.10;;;;;;10939039;32;20035;-73
2023/07/16 19:33:16;;;;;;;3.80;2.85;;;33.00;70.30;;;;;;10936572;32;20046;-73
2023/07/16 19:39:18;;;;;;;3.78;2.65;;;33.00;70.50;;;;;;10938483;32;20361;-72
2023/07/16 19:45:21;;;;;;;6.15;3.12;;;32.90;70.70;;;;;;10942836;32;20392;-72
2023/07/16 19:51:23;;;;;;;4.65;2.83;;;32.90;71.00;;;;;;10942489;32;20409;-72
2023/07/16 19:57:27;;;;;;;6.47;3.00;;;32.80;71.20;;;;;;10942406;32;20019;-72
2023/07/16 20:03:30;;;;;;;4.22;2.90;;;32.70;71.30;;;;;;10941957;32;20101;-72
2023/07/16 20:09:32;;;;;;;4.03;2.17;;;32.60;71.50;;;;;;10939697;32;20344;-72
2023/07/16 20:15:35;;;;;;;10.95;3.85;;;32.50;71.80;;;;;;10923859;32;20039;-72
2023/07/16 20:21:37;;;;;;;5.12;3.40;;;32.40;73.30;;;;;;10940469;32;20019;-72
2023/07/16 20:27:44;;;;;;;4.90;3.55;;;32.30;74.50;;;;;;10941312;32;20053;-72
2023/07/16 20:33:47;;;;;;;7.07;2.90;;;32.30;74.40;;;;;;10940522;32;20408;-72
2023/07/16 20:39:49;;;;;;;15.57;5.30;;;32.20;74.30;;;;;;10941482;32;20356;-72
2023/07/16 20:45:52;;;;;;;6.90;3.35;;;32.10;74.20;;;;;;10941375;32;20015;-72
2023/07/16 20:51:54;;;;;;;6.47;3.05;;;32.10;74.40;;;;;;10941077;32;20092;-73
2023/07/16 20:57:56;;;;;;;6.65;3.65;;;32.10;74.40;;;;;;10941299;32;20042;-73
2023/07/16 21:04:00;;;;;;;5.32;3.30;;;32.20;74.30;;;;;;10940610;32;20015;-73
2023/07/16 21:10:03;;;;;;;5.37;3.22;;;32.00;74.40;;;;;;10927119;32;20436;-72
2023/07/16 21:16:05;;;;;;;6.80;4.00;;;32.00;74.90;;;;;;10944207;32;20023;-73
2023/07/16 21:22:07;;;;;;;7.55;3.75;;;32.00;75.00;;;;;;10947880;32;20041;-73
2023/07/16 21:28:09;;;;;;;6.05;3.35;;;31.90;75.10;;;;;;10947444;32;20444;-73
2023/07/16 21:34:11;;;;;;;8.05;3.60;;;31.90;75.30;;;;;;10947445;32;20019;-72
2023/07/16 21:40:14;;;;;;;6.37;4.03;;;31.80;76.40;;;;;;10947053;32;20113;-72
2023/07/16 21:46:17;;;;;;;8.40;4.35;;;31.70;77.30;;;;;;10933052;32;20027;-72
2023/07/16 21:52:19;;;;;;;5.30;3.20;;;31.60;77.90;;;;;;10932781;32;20047;-72
2023/07/16 21:58:21;;;;;;;6.90;4.35;;;31.60;77.60;;;;;;10928158;32;20027;-72
2023/07/16 22:04:23;;;;;;;5.75;3.85;;;31.60;77.30;;;;;;10942713;32;20337;-72
2023/07/16 22:10:25;;;;;;;5.90;3.85;;;31.60;77.10;;;;;;10946193;32;20034;-72
2023/07/16 22:16:27;;;;;;;11.70;5.03;;;31.50;77.10;;;;;;10945924;32;20038;-73
2023/07/16 22:22:38;;;;;;;6.18;3.87;;;31.30;77.20;;;;;;10945819;32;20015;-73
2023/07/16 22:28:43;;;;;;;7.97;4.05;;;31.40;77.20;;;;;;10945380;32;20061;-73
2023/07/16 22:34:46;;;;;;;9.68;4.87;;;31.30;78.10;;;;;;10931304;32;20053;-73
2023/07/16 22:40:48;;;;;;;9.25;4.50;;;31.20;79.10;;;;;;10931776;32;20303;-73
2023/07/16 22:46:50;;;;;;;5.82;4.12;;;31.10;79.70;;;;;;10944923;32;20090;-73
2023/07/16 22:52:52;;;;;;;7.68;5.20;;;31.10;80.30;;;;;;10944601;32;20105;-73
2023/07/16 22:58:54;;;;;;;9.93;5.68;;;30.90;80.60;;;;;;10944461;32;20019;-73
2023/07/16 23:04:56;;;;;;;11.05;5.50;;;30.90;80.70;;;;;;10944205;32;20023;-73
2023/07/16 23:10:59;;;;;;;9.65;5.57;;;30.90;80.10;;;;;;10944005;32;20038;-73
2023/07/16 23:17:01;;;;;;;7.57;4.30;;;31.00;80.00;;;;;;10939846;32;20046;-73
2023/07/16 23:23:04;;;;;;;10.07;4.82;;;30.90;80.40;;;;;;10943562;32;20014;-73
2023/07/16 23:29:05;;;;;;;10.57;5.70;;;31.00;80.20;;;;;;10531676;27;12390138;-73
2023/07/16 23:35:08;;;;;;;13.75;5.20;;;30.90;79.90;;;;;;10828292;32;20039;-73
2023/07/16 23:41:10;;;;;;;6.50;4.97;;;30.80;79.90;;;;;;10827303;32;20162;-73
2023/07/16 23:47:12;;;;;;;7.32;4.05;;;30.80;79.70;;;;;;10826823;32;20410;-73
2023/07/16 23:53:14;;;;;;;5.47;3.80;;;30.70;79.50;;;;;;10827734;32;20016;-73
2023/07/16 23:59:17;;;;;;;5.95;4.55;;;30.70;79.40;;;;;;10827366;32;20104;-73
